Comer, Georgia
Current Conditions -  °F | °C
As of 10:51 AM on Monday 26 Jan 2015 (Local Time) from KAHN Reporting Station
Broken Clouds Broken Clouds  
Wind Chill: 51°   Ceiling: 3200
Heat Index: 51°   Visibility: 10mi
Dew Point: 36°   Wind: 17mph
Humidity: 56%   Direction: 290°WNW
Pressure: 29.77"   Gusts: 30mph
Location:  34.06°N, 83.13°W
Report Text: KAHN 261551Z 29015G26KT 10SM BKN032 11/02 A2977 RMK AO2 PK WND 29026/1542 SLP083 T01060022
Loading
Personal Weather Stations






























Interactive Weather Map New forecast layout! Learn more

10-Day Weather Forecast

Advertisements
Track Severe Weather on mobile